Time;durP1;ratioP1;P1;durP2;ratioP2;P2;SDS_P1;SDS_P2;PMS_P1;PMS_P2;Temp;Humidity;BMP_temperature;BMP_pressure;BME280_temperature;BME280_humidity;BME280_pressure;Samples;Min_cycle;Max_cycle;Signal;HPM_P1;HPM_P2
2023/03/26 00:00:34;;;;;;;7.75;2.25;;;;;;;19.18;43.83;100641.53;5050204;28;20082;-71
2023/03/26 00:02:59;;;;;;;9.40;2.20;;;;;;;19.17;43.79;100647.81;5050676;28;20170;-72
2023/03/26 00:05:25;;;;;;;8.60;2.50;;;;;;;19.18;43.86;100655.59;5050519;28;20174;-71
2023/03/26 00:07:50;;;;;;;8.85;2.50;;;;;;;19.13;43.92;100644.56;5051360;28;20040;-72
2023/03/26 00:10:15;;;;;;;11.52;2.80;;;;;;;19.11;43.90;100638.59;5051162;28;20434;-73
2023/03/26 00:12:41;;;;;;;8.27;2.40;;;;;;;19.13;43.81;100649.84;5051842;28;20107;-70
2023/03/26 00:15:09;;;;;;;10.02;2.75;;;;;;;19.13;43.69;100635.81;5050585;28;20041;-71
2023/03/26 00:17:34;;;;;;;7.82;2.30;;;;;;;19.13;43.59;100644.56;5051445;28;20029;-72
2023/03/26 00:20:00;;;;;;;10.38;2.83;;;;;;;19.11;43.67;100637.78;5050558;28;20052;-71
2023/03/26 00:22:25;;;;;;;10.63;3.00;;;;;;;19.08;43.78;100630.94;5050918;28;20041;-71
2023/03/26 00:24:50;;;;;;;7.07;2.60;;;;;;;19.05;43.69;100628.56;5051353;28;20616;-71
2023/03/26 00:27:16;;;;;;;9.55;2.88;;;;;;;19.07;43.78;100633.72;5051132;28;20816;-69
2023/03/26 00:29:41;;;;;;;8.90;2.40;;;;;;;19.05;43.80;100630.38;5051925;28;20116;-73
2023/03/26 00:32:07;;;;;;;9.23;2.72;;;;;;;19.06;43.67;100632.03;5051475;28;20033;-71
2023/03/26 00:34:33;;;;;;;8.40;2.55;;;;;;;19.05;43.56;100631.22;5050818;28;20029;-71
2023/03/26 00:37:01;;;;;;;8.05;2.47;;;;;;;19.03;43.61;100623.44;5050876;28;20040;-72
2023/03/26 00:39:28;;;;;;;8.38;2.72;;;;;;;19.02;43.54;100623.56;5051472;28;20056;-73
2023/03/26 00:41:53;;;;;;;9.38;2.50;;;;;;;19.01;43.51;100624.56;5051282;28;20059;-71
2023/03/26 00:44:19;;;;;;;10.63;2.85;;;;;;;18.97;43.61;100623.13;5050801;28;20033;-71
2023/03/26 00:46:45;;;;;;;9.63;2.38;;;;;;;18.98;43.59;100611.63;5051039;28;20029;-72
2023/03/26 00:49:13;;;;;;;9.32;2.30;;;;;;;18.99;43.73;100614.13;5051037;28;20424;-72
2023/03/26 00:51:39;;;;;;;9.95;2.47;;;;;;;18.97;43.49;100608.13;5051006;28;20139;-73
2023/03/26 00:54:06;;;;;;;7.13;2.33;;;;;;;18.97;43.52;100610.75;5050163;28;20040;-72
2023/03/26 00:56:32;;;;;;;9.45;2.65;;;;;;;18.97;43.42;100607.28;5041368;28;20598;-72
2023/03/26 00:58:59;;;;;;;7.93;2.67;;;;;;;18.97;43.39;100609.94;5050916;28;20107;-71
2023/03/26 01:01:26;;;;;;;7.78;2.78;;;;;;;18.96;43.31;100609.09;5066200;28;20504;-73
2023/03/26 01:03:57;;;;;;;7.75;2.30;;;;;;;18.95;43.53;100598.69;5050438;28;20082;-70
2023/03/26 01:06:26;;;;;;;9.23;2.55;;;;;;;18.93;43.42;100600.59;5051048;28;20086;-73
2023/03/26 01:08:53;;;;;;;9.65;3.45;;;;;;;18.92;43.40;100583.09;5050711;28;20036;-72
2023/03/26 01:11:26;;;;;;;6.95;2.28;;;;;;;18.93;43.39;100582.97;5050742;28;20047;-71
2023/03/26 01:13:59;;;;;;;9.38;2.25;;;;;;;18.92;43.24;100578.66;5050819;28;20045;-71
2023/03/26 01:16:30;;;;;;;7.32;2.45;;;;;;;18.92;43.20;100569.91;5054032;28;20032;-71
2023/03/26 01:18:57;;;;;;;6.70;2.30;;;;;;;18.90;43.33;100572.69;5054775;28;20036;-72
2023/03/26 01:21:27;;;;;;;9.38;2.45;;;;;;;18.91;43.23;100570.88;5054333;28;20036;-71
2023/03/26 01:24:06;;;;;;;11.15;2.53;;;;;;;18.87;43.30;100564.16;5054129;28;20041;-72
2023/03/26 01:27:08;;;;;;;8.43;2.25;;;;;;;18.85;43.30;100553.78;5054350;28;20033;-72
2023/03/26 01:29:45;;;;;;;9.77;2.67;;;;;;;18.87;43.25;100550.97;5054311;28;20584;-71
2023/03/26 01:32:32;;;;;;;7.82;2.03;;;;;;;18.85;43.15;100549.31;5054079;28;20124;-71
2023/03/26 01:35:11;;;;;;;7.35;2.03;;;;;;;18.84;43.25;100541.53;5053705;28;20028;-70
2023/03/26 01:38:17;;;;;;;7.75;2.33;;;;;;;18.84;43.21;100533.63;5054505;28;20047;-73
2023/03/26 01:40:53;;;;;;;9.13;2.90;;;;;;;18.80;43.08;100533.03;5052978;28;20123;-71
2023/03/26 01:43:38;;;;;;;8.10;2.72;;;;;;;18.82;43.13;100540.81;5053936;28;20134;-72
2023/03/26 01:46:08;;;;;;;8.95;2.40;;;;;;;18.80;43.04;100537.47;5053968;28;20362;-71
2023/03/26 01:48:37;;;;;;;8.55;3.58;;;;;;;18.80;43.13;100538.31;5054028;28;20720;-71
2023/03/26 01:51:04;;;;;;;7.32;2.20;;;;;;;18.80;42.99;100537.47;5053784;28;20385;-72
2023/03/26 01:53:30;;;;;;;8.32;2.70;;;;;;;18.78;43.03;100534.94;5054340;28;20036;-70
2023/03/26 01:56:00;;;;;;;8.85;2.60;;;;;;;18.79;43.13;100533.16;5053893;28;20058;-72
2023/03/26 01:58:52;;;;;;;10.75;2.90;;;;;;;18.76;43.06;100523.69;5052473;28;20132;-72
2023/03/26 02:01:28;;;;;;;9.63;2.40;;;;;;;18.78;42.78;100523.56;5054294;28;20037;-71
2023/03/26 02:04:20;;;;;;;7.00;2.08;;;;;;;18.75;42.93;100514.09;5053630;28;20358;-71
2023/03/26 02:07:05;;;;;;;6.20;1.95;;;;;;;18.77;43.04;100511.31;5051006;28;20110;-72
2023/03/26 02:09:37;;;;;;;7.47;2.25;;;;;;;18.74;42.97;100504.53;5049277;28;20489;-72
2023/03/26 02:12:05;;;;;;;7.70;2.47;;;;;;;18.74;42.70;100495.75;5053790;28;20554;-73
2023/03/26 02:14:30;;;;;;;6.03;1.90;;;;;;;18.73;43.05;100502.84;5053406;28;20119;-71
2023/03/26 02:16:57;;;;;;;8.05;3.22;;;;;;;18.73;42.94;100489.66;5053169;28;20032;-72
2023/03/26 02:19:23;;;;;;;8.45;2.20;;;;;;;18.72;42.89;100487.97;5053381;28;20052;-71
2023/03/26 02:21:50;;;;;;;8.75;2.13;;;;;;;18.71;42.99;100477.56;5053876;28;20040;-73
2023/03/26 02:24:17;;;;;;;7.53;2.25;;;;;;;18.72;42.85;100481.88;5052870;28;20120;-71
2023/03/26 02:26:43;;;;;;;9.85;2.42;;;;;;;18.69;42.75;100475.06;5052273;28;20033;-71
2023/03/26 02:29:08;;;;;;;7.53;2.50;;;;;;;18.68;42.84;100481.31;5053567;28;20039;-71
2023/03/26 02:31:34;;;;;;;7.72;2.03;;;;;;;18.70;42.91;100473.25;5053409;28;20116;-74
2023/03/26 02:34:00;;;;;;;7.05;2.30;;;;;;;18.61;42.71;100464.34;5053147;28;20064;-73
2023/03/26 02:36:28;;;;;;;8.02;2.40;;;;;;;18.68;42.97;100470.75;5053392;28;20139;-74
2023/03/26 02:38:56;;;;;;;8.57;2.15;;;;;;;18.69;42.82;100469.78;5053177;28;20025;-72
2023/03/26 02:41:22;;;;;;;7.38;2.17;;;;;;;18.66;42.89;100462.97;5053319;28;20044;-71
2023/03/26 02:43:47;;;;;;;7.97;2.33;;;;;;;18.68;42.92;100470.75;5053410;28;20036;-71
2023/03/26 02:46:12;;;;;;;7.57;2.13;;;;;;;18.65;42.87;100463.94;5053129;28;20032;-73
2023/03/26 02:48:40;;;;;;;8.20;2.20;;;;;;;18.65;42.58;100456.03;5052385;28;20028;-74
2023/03/26 02:51:05;;;;;;;9.45;2.50;;;;;;;18.65;42.96;100445.47;5053564;28;20273;-72
2023/03/26 02:53:31;;;;;;;9.77;2.30;;;;;;;18.63;42.77;100441.31;5053311;28;20045;-72
2023/03/26 02:55:58;;;;;;;9.18;2.03;;;;;;;18.63;42.76;100436.03;5052791;28;20037;-72
2023/03/26 02:58:28;;;;;;;8.55;2.00;;;;;;;18.63;42.76;100431.59;5053658;28;20032;-72
2023/03/26 03:00:54;;;;;;;8.82;2.65;;;;;;;18.63;42.77;100434.22;5052334;28;20389;-72
2023/03/26 03:03:25;;;;;;;8.02;2.05;;;;;;;18.61;42.99;100428.25;5052358;28;20036;-73
2023/03/26 03:05:51;;;;;;;7.60;2.15;;;;;;;18.60;43.10;100421.31;5052383;28;20111;-72
2023/03/26 03:08:18;;;;;;;7.18;2.10;;;;;;;18.61;42.96;100416.84;5052784;28;20071;-73
2023/03/26 03:10:53;;;;;;;6.43;2.08;;;;;;;18.60;42.88;100407.28;5052442;28;20044;-73
2023/03/26 03:13:19;;;;;;;9.40;2.30;;;;;;;18.59;42.97;100403.78;5051627;28;20490;-72
2023/03/26 03:15:44;;;;;;;8.13;2.40;;;;;;;18.59;42.91;100403.78;5052358;28;20039;-72
2023/03/26 03:18:09;;;;;;;5.78;2.10;;;;;;;18.56;43.02;100392.69;5052743;28;20032;-73
2023/03/26 03:20:34;;;;;;;10.80;2.58;;;;;;;18.61;42.94;100399.22;5067957;28;20041;-73
2023/03/26 03:23:00;;;;;;;9.30;2.63;;;;;;;18.60;43.13;100399.34;5052906;28;20106;-71
2023/03/26 03:25:25;;;;;;;10.73;2.30;;;;;;;18.58;42.85;100390.72;5052108;28;20032;-71
2023/03/26 03:27:52;;;;;;;8.00;2.45;;;;;;;18.60;42.99;100392.28;5052624;28;20049;-71
2023/03/26 03:30:18;;;;;;;7.18;1.90;;;;;;;18.58;42.92;100385.44;5052807;28;20043;-71
2023/03/26 03:32:43;;;;;;;7.40;2.00;;;;;;;18.59;43.10;100387.94;5052289;28;20452;-71
2023/03/26 03:35:08;;;;;;;9.07;2.43;;;;;;;18.59;42.99;100379.22;5050863;28;20033;-71
2023/03/26 03:37:34;;;;;;;6.72;2.33;;;;;;;18.59;42.93;100390.59;5051541;28;20725;-72
2023/03/26 03:39:59;;;;;;;8.88;2.40;;;;;;;18.59;42.92;100380.03;5051622;28;20071;-71
2023/03/26 03:42:26;;;;;;;8.35;2.25;;;;;;;18.57;42.79;100376.72;5052480;28;20040;-73
2023/03/26 03:44:51;;;;;;;10.20;2.70;;;;;;;18.60;42.85;100380.88;5050895;28;20036;-72
2023/03/26 03:47:16;;;;;;;6.97;2.10;;;;;;;18.56;42.91;100375.03;5051888;28;20480;-71
2023/03/26 03:49:42;;;;;;;7.22;1.70;;;;;;;18.58;42.98;100372.25;5052041;28;20135;-72
2023/03/26 03:52:07;;;;;;;9.30;2.00;;;;;;;18.53;42.92;100363.94;5051567;28;20095;-71
2023/03/26 03:54:32;;;;;;;7.30;2.80;;;;;;;18.54;42.81;100361.16;5052069;28;20033;-72
2023/03/26 03:56:58;;;;;;;7.97;1.92;;;;;;;18.56;43.17;100366.28;5051186;28;20028;-73
2023/03/26 03:59:23;;;;;;;6.97;2.30;;;;;;;18.56;43.10;100353.91;5051900;28;20132;-70
2023/03/26 04:01:49;;;;;;;6.28;2.05;;;;;;;18.51;43.07;100348.22;5051698;28;20056;-73
2023/03/26 04:04:15;;;;;;;7.15;1.80;;;;;;;18.55;43.17;100346.13;5041412;28;20517;-71
2023/03/26 04:06:40;;;;;;;7.50;2.38;;;;;;;18.53;43.10;100343.63;5051849;28;20103;-74
2023/03/26 04:09:06;;;;;;;6.60;1.80;;;;;;;18.54;43.14;100336.56;5050072;28;20108;-69
2023/03/26 04:11:31;;;;;;;6.35;1.88;;;;;;;18.55;43.12;100332.94;5051731;28;20040;-70
2023/03/26 04:13:56;;;;;;;6.38;1.90;;;;;;;18.54;43.09;100332.13;5051484;28;20452;-71
2023/03/26 04:16:22;;;;;;;6.28;1.75;;;;;;;18.52;43.33;100318.25;5050032;28;20056;-73
2023/03/26 04:18:47;;;;;;;8.75;1.95;;;;;;;18.52;43.24;100310.31;5050696;28;20086;-71
2023/03/26 04:21:14;;;;;;;9.10;2.05;;;;;;;18.53;43.28;100308.50;5050911;28;20522;-70
2023/03/26 04:23:41;;;;;;;9.15;1.70;;;;;;;18.52;43.33;100302.41;5050724;28;20039;-73
2023/03/26 04:26:09;;;;;;;6.78;1.90;;;;;;;18.50;43.08;100299.09;5049589;28;20028;-72
2023/03/26 04:29:03;;;;;;;7.53;2.00;;;;;;;18.52;43.03;100301.56;5050089;28;20087;-73
2023/03/26 04:31:29;;;;;;;5.68;1.60;;;;;;;18.51;43.33;100286.72;5047116;28;20076;-71
2023/03/26 04:34:14;;;;;;;6.22;1.85;;;;;;;18.49;43.07;100282.41;5050820;28;20125;-71
2023/03/26 04:36:41;;;;;;;7.03;2.10;;;;;;;18.50;43.09;100285.91;5051156;28;20025;-70
2023/03/26 04:39:11;;;;;;;6.32;1.77;;;;;;;18.44;43.20;100271.44;5050980;28;20033;-71
2023/03/26 04:41:37;;;;;;;7.85;2.28;;;;;;;18.51;43.14;100274.34;5050943;28;20090;-70
2023/03/26 04:44:04;;;;;;;6.55;1.92;;;;;;;18.50;43.07;100267.44;5050682;28;20047;-73
2023/03/26 04:46:32;;;;;;;7.30;2.00;;;;;;;18.48;43.46;100264.06;5050573;28;20029;-72
2023/03/26 04:48:58;;;;;;;8.38;1.90;;;;;;;18.46;43.41;100256.28;5050587;28;20075;-71
2023/03/26 04:51:28;;;;;;;5.63;1.52;;;;;;;18.45;43.40;100249.38;5056495;28;20043;-71
2023/03/26 04:53:57;;;;;;;5.53;1.67;;;;;;;18.47;43.31;100249.25;5056745;28;20037;-71
2023/03/26 04:56:37;;;;;;;5.18;1.50;;;;;;;18.48;43.47;100251.72;5057490;28;20036;-73
2023/03/26 04:59:03;;;;;;;5.60;1.50;;;;;;;18.46;43.23;100248.38;5057428;28;20037;-71
2023/03/26 05:01:29;;;;;;;6.40;1.95;;;;;;;18.46;43.20;100245.75;5057840;28;20033;-71
2023/03/26 05:03:57;;;;;;;8.23;2.00;;;;;;;18.46;43.34;100237.00;5056828;28;20032;-71
2023/03/26 05:06:24;;;;;;;4.80;1.80;;;;;;;18.48;43.39;100237.69;5057617;28;20317;-72
2023/03/26 05:08:50;;;;;;;6.70;1.52;;;;;;;18.47;43.38;100234.22;5056947;28;20037;-70
2023/03/26 05:11:15;;;;;;;6.20;1.73;;;;;;;18.44;43.48;100231.88;5056722;28;20044;-74
2023/03/26 05:13:41;;;;;;;5.95;1.40;;;;;;;18.47;43.40;100231.59;5056153;28;20028;-70
2023/03/26 05:16:08;;;;;;;7.32;2.20;;;;;;;18.44;43.42;100221.31;5057577;28;20094;-71
2023/03/26 05:18:34;;;;;;;5.85;1.98;;;;;;;18.47;43.44;100226.31;5057206;28;20547;-71
2023/03/26 05:20:59;;;;;;;4.80;1.83;;;;;;;18.47;43.50;100221.03;5056906;28;20060;-71
2023/03/26 05:23:24;;;;;;;4.82;1.52;;;;;;;18.51;43.78;100218.94;5057362;28;20337;-71
2023/03/26 05:25:50;;;;;;;7.28;2.00;;;;;;;18.51;43.73;100205.75;5057329;28;20466;-70
2023/03/26 05:28:18;;;;;;;6.03;1.83;;;;;;;18.53;43.54;100210.88;5057825;28;20503;-72
2023/03/26 05:30:43;;;;;;;5.00;1.45;;;;;;;18.56;43.79;100207.97;5056987;28;20043;-71
2023/03/26 05:33:09;;;;;;;5.25;1.50;;;;;;;18.56;43.73;100197.41;5057075;28;20036;-72
2023/03/26 05:35:35;;;;;;;5.93;1.60;;;;;;;18.59;43.89;100197.13;5056710;28;20024;-72
2023/03/26 05:38:00;;;;;;;5.82;1.50;;;;;;;18.61;43.68;100192.53;5057025;28;20131;-72
2023/03/26 05:40:26;;;;;;;3.67;1.30;;;;;;;18.65;43.78;100194.72;5056319;28;20629;-71
2023/03/26 05:42:51;;;;;;;4.75;1.30;;;;;;;18.68;43.74;100197.09;5055928;28;20052;-72
2023/03/26 05:45:16;;;;;;;4.82;1.50;;;;;;;18.65;43.86;100184.16;5056710;28;20036;-73
2023/03/26 05:47:42;;;;;;;5.85;1.23;;;;;;;18.72;43.65;100180.97;5057057;28;20076;-72
2023/03/26 05:50:08;;;;;;;4.70;1.27;;;;;;;18.75;43.69;100185.94;5056562;28;20110;-72
2023/03/26 05:52:33;;;;;;;5.60;1.30;;;;;;;18.75;43.49;100172.75;5057277;28;20060;-72
2023/03/26 05:54:59;;;;;;;4.60;1.17;;;;;;;18.77;43.46;100174.28;5056757;28;20059;-74
2023/03/26 05:57:27;;;;;;;5.20;1.35;;;;;;;18.79;43.60;100153.03;5057224;28;20029;-72
2023/03/26 05:59:52;;;;;;;4.65;1.20;;;;;;;18.80;43.56;100152.88;5057352;28;20037;-73
2023/03/26 06:02:18;;;;;;;4.10;1.17;;;;;;;18.80;43.35;100144.97;5053801;28;20359;-71
2023/03/26 06:04:44;;;;;;;4.63;1.40;;;;;;;18.84;43.65;100153.44;5053640;28;20025;-71
2023/03/26 06:07:10;;;;;;;4.60;1.50;;;;;;;18.84;43.51;100143.69;5053141;28;20266;-72
2023/03/26 06:09:39;;;;;;;6.10;1.50;;;;;;;18.83;43.63;100143.81;5053771;28;20703;-73
2023/03/26 06:12:06;;;;;;;4.93;1.52;;;;;;;18.89;43.42;100147.72;5053056;28;20399;-73
2023/03/26 06:14:32;;;;;;;5.05;1.40;;;;;;;18.86;43.76;100138.28;5053454;28;20044;-72
2023/03/26 06:16:57;;;;;;;5.22;1.60;;;;;;;18.90;43.46;100141.44;5051150;28;20461;-73
2023/03/26 06:19:23;;;;;;;3.75;1.15;;;;;;;18.89;43.54;100137.16;5053422;28;20049;-71
2023/03/26 06:21:48;;;;;;;7.47;1.27;;;;;;;18.90;43.72;100128.25;5053812;28;20045;-72
2023/03/26 06:24:15;;;;;;;5.47;1.60;;;;;;;18.90;43.54;100131.75;5053563;28;20032;-71
2023/03/26 06:26:41;;;;;;;4.65;1.58;;;;;;;18.93;43.44;100136.72;5053262;28;20025;-74
2023/03/26 06:29:06;;;;;;;4.30;1.20;;;;;;;18.93;43.42;100141.16;5053871;28;20086;-73
2023/03/26 06:31:32;;;;;;;5.75;1.48;;;;;;;18.94;43.61;100133.09;5053224;28;20112;-69
2023/03/26 06:33:57;;;;;;;6.47;1.48;;;;;;;18.93;43.38;100131.44;5053522;28;20048;-70
2023/03/26 06:36:22;;;;;;;6.55;1.83;;;;;;;18.89;43.35;100130.06;5051099;28;20029;-69
2023/03/26 06:38:47;;;;;;;4.85;1.40;;;;;;;18.93;43.41;100135.88;5053271;28;20099;-71
2023/03/26 06:41:13;;;;;;;4.05;1.25;;;;;;;18.94;43.42;100137.53;5053594;28;20050;-72
2023/03/26 06:43:38;;;;;;;6.40;2.00;;;;;;;18.94;43.66;100137.53;5051782;28;20025;-72
2023/03/26 06:46:04;;;;;;;6.03;1.63;;;;;;;18.93;43.74;100134.09;5052814;28;20028;-72
2023/03/26 06:48:30;;;;;;;8.18;1.70;;;;;;;18.92;43.56;100137.69;5053422;28;20072;-71
2023/03/26 06:50:56;;;;;;;5.35;1.50;;;;;;;18.94;43.97;100140.19;5052936;28;20400;-73
2023/03/26 06:53:21;;;;;;;4.40;1.33;;;;;;;18.92;43.92;100134.22;5052927;28;20848;-73
2023/03/26 06:55:46;;;;;;;4.53;1.40;;;;;;;18.88;44.20;100124.94;5053425;28;20029;-73
2023/03/26 06:58:12;;;;;;;4.45;1.48;;;;;;;18.93;44.41;100135.88;5052387;28;20058;-73
2023/03/26 07:00:38;;;;;;;6.22;1.60;;;;;;;18.93;44.34;100134.09;5052826;28;20501;-75
2023/03/26 07:03:04;;;;;;;5.85;1.50;;;;;;;18.94;44.59;100135.72;5052726;28;20032;-72
2023/03/26 07:05:29;;;;;;;5.22;1.35;;;;;;;18.93;44.30;100133.22;5052772;28;20043;-71
2023/03/26 07:07:55;;;;;;;4.82;1.33;;;;;;;18.93;44.58;100128.81;5052444;28;20532;-75
2023/03/26 07:10:20;;;;;;;7.13;1.80;;;;;;;18.97;44.53;100131.97;5052243;28;20032;-74
2023/03/26 07:12:46;;;;;;;4.47;1.48;;;;;;;18.98;44.28;100128.38;5052597;28;20112;-74
2023/03/26 07:15:11;;;;;;;6.20;1.75;;;;;;;18.98;44.42;100133.66;5052790;28;20036;-74
2023/03/26 07:17:37;;;;;;;6.40;1.58;;;;;;;18.97;44.53;100124.06;5052432;28;20124;-75
2023/03/26 07:20:04;;;;;;;5.43;1.58;;;;;;;18.96;44.45;100120.59;5051734;28;20592;-73
2023/03/26 07:22:29;;;;;;;5.32;1.75;;;;;;;18.96;44.50;100123.22;5051961;28;20044;-72
2023/03/26 07:24:55;;;;;;;5.78;1.50;;;;;;;18.94;44.57;100121.72;5052106;28;20040;-71
2023/03/26 07:27:51;;;;;;;4.28;1.40;;;;;;;18.93;44.63;100115.59;5052144;28;20036;-71
2023/03/26 07:30:19;;;;;;;6.10;1.60;;;;;;;18.95;44.56;100111.00;5052023;28;20531;-70
2023/03/26 07:33:02;;;;;;;6.18;1.60;;;;;;;18.93;44.56;100112.13;5052546;28;20055;-70
2023/03/26 07:36:08;;;;;;;5.15;1.65;;;;;;;18.93;44.54;100099.75;5051928;28;20396;-70
2023/03/26 07:39:11;;;;;;;7.80;1.70;;;;;;;18.93;44.61;100104.19;5052062;28;20028;-72
2023/03/26 07:41:48;;;;;;;7.07;1.48;;;;;;;18.93;44.69;100105.03;5047133;28;21210;-69
2023/03/26 07:44:31;;;;;;;6.25;1.65;;;;;;;18.88;44.67;100098.53;5052266;28;20028;-70
2023/03/26 07:47:00;;;;;;;6.50;1.55;;;;;;;18.90;44.77;100105.34;5051708;28;20428;-72
2023/03/26 07:49:28;;;;;;;8.77;2.05;;;;;;;18.91;44.35;100098.25;5051874;28;20035;-71
2023/03/26 07:51:53;;;;;;;4.20;1.40;;;;;;;18.90;44.54;100092.13;5052055;28;20389;-70
2023/03/26 07:54:19;;;;;;;4.63;1.20;;;;;;;18.93;44.51;100091.00;5051256;28;20037;-71
2023/03/26 07:56:49;;;;;;;6.60;1.45;;;;;;;18.89;44.60;100093.09;5051529;28;20123;-72
2023/03/26 07:59:35;;;;;;;5.68;1.42;;;;;;;18.88;44.53;100087.97;5051971;28;20029;-72
2023/03/26 08:02:21;;;;;;;3.97;1.33;;;;;;;18.92;44.51;100095.44;5051447;28;20116;-70
2023/03/26 08:05:17;;;;;;;5.90;1.65;;;;;;;18.92;44.51;100089.34;5044603;28;20097;-74
2023/03/26 08:08:07;;;;;;;6.20;1.38;;;;;;;18.92;44.38;100092.81;5048399;28;20549;-71
2023/03/26 08:10:41;;;;;;;5.57;1.42;;;;;;;18.92;44.53;100086.72;5051401;28;20048;-74
2023/03/26 08:13:29;;;;;;;5.05;1.40;;;;;;;18.92;44.57;100087.53;5051712;28;20107;-73
2023/03/26 08:16:17;;;;;;;4.93;1.50;;;;;;;18.93;44.41;100081.28;5051670;28;20067;-69
2023/03/26 08:18:48;;;;;;;6.32;1.92;;;;;;;18.93;44.45;100083.91;5051198;28;20032;-71
2023/03/26 08:21:26;;;;;;;4.20;1.40;;;;;;;18.89;44.47;100082.53;5051369;28;20036;-70
2023/03/26 08:24:05;;;;;;;5.00;1.73;;;;;;;18.92;44.55;100081.44;5051245;28;20029;-69
2023/03/26 08:26:44;;;;;;;7.45;1.75;;;;;;;18.90;44.37;100076.28;5050146;28;20040;-72
2023/03/26 08:29:31;;;;;;;5.70;1.60;;;;;;;18.90;44.33;100081.56;5050897;28;20044;-70
2023/03/26 08:31:57;;;;;;;5.47;1.30;;;;;;;18.91;44.49;100074.47;5051502;28;20090;-70
2023/03/26 08:34:23;;;;;;;4.63;1.40;;;;;;;18.91;44.49;100075.28;5049183;28;20444;-69
2023/03/26 08:36:48;;;;;;;5.95;1.33;;;;;;;18.92;44.63;100076.16;5050315;28;20037;-70
2023/03/26 08:39:14;;;;;;;4.25;1.40;;;;;;;18.92;44.51;100070.88;5050871;28;20394;-72
2023/03/26 08:42:16;;;;;;;4.72;1.52;;;;;;;18.92;44.65;100076.16;5050311;28;20575;-69
2023/03/26 08:45:00;;;;;;;4.90;1.65;;;;;;;18.92;44.74;100073.50;5050620;28;20122;-71
2023/03/26 08:47:50;;;;;;;4.65;1.55;;;;;;;18.89;44.89;100065.88;5050863;28;20037;-71
2023/03/26 08:50:43;;;;;;;4.80;1.77;;;;;;;18.95;44.76;100074.03;5050710;28;20036;-72
2023/03/26 08:53:17;;;;;;;6.07;1.95;;;;;;;18.95;44.74;100073.22;5050759;28;20061;-69
2023/03/26 08:55:42;;;;;;;5.68;1.30;;;;;;;18.96;44.74;100070.44;5050765;28;20036;-70
2023/03/26 08:58:19;;;;;;;4.68;1.42;;;;;;;18.96;44.80;100061.66;5050731;28;20031;-73
2023/03/26 09:00:57;;;;;;;7.00;1.55;;;;;;;18.97;44.82;100071.25;5050592;28;20033;-70
2023/03/26 09:03:52;;;;;;;4.22;1.40;;;;;;;18.96;44.89;100066.94;5049450;28;20032;-71
2023/03/26 09:06:42;;;;;;;8.18;1.80;;;;;;;18.97;45.12;100064.16;5050293;28;20024;-73
2023/03/26 09:09:29;;;;;;;5.00;1.60;;;;;;;18.97;44.97;100068.59;5048681;28;20428;-71
2023/03/26 09:12:17;;;;;;;4.88;1.35;;;;;;;18.96;45.16;100066.94;5050698;28;20036;-70
2023/03/26 09:15:04;;;;;;;5.95;1.60;;;;;;;18.97;45.12;100069.44;5050045;28;20048;-71
2023/03/26 09:18:16;;;;;;;4.93;1.48;;;;;;;18.94;45.12;100061.81;5050086;28;20029;-68
2023/03/26 09:21:07;;;;;;;5.95;1.70;;;;;;;19.06;45.17;100070.34;5048659;28;20057;-67
2023/03/26 09:24:04;;;;;;;6.97;1.70;;;;;;;19.12;45.05;100063.63;5048974;28;20055;-71
2023/03/26 09:27:06;;;;;;;4.65;1.50;;;;;;;19.12;44.74;100051.28;5050011;28;20028;-69
2023/03/26 09:29:37;;;;;;;6.30;1.50;;;;;;;19.28;44.63;100060.31;5049685;28;20713;-71
2023/03/26 09:32:41;;;;;;;4.10;1.40;;;;;;;19.30;44.81;100059.19;5048685;28;20453;-69
2023/03/26 09:35:36;;;;;;;4.32;1.25;;;;;;;19.34;44.61;100059.72;5050189;28;20032;-68
2023/03/26 09:38:22;;;;;;;6.50;1.60;;;;;;;19.37;44.72;100069.97;5053185;28;20250;-68
2023/03/26 09:41:02;;;;;;;5.30;1.42;;;;;;;19.28;44.83;100058.53;5052763;28;20044;-70
2023/03/26 09:43:40;;;;;;;5.78;1.63;;;;;;;19.31;44.91;100063.50;5053164;28;20033;-69
2023/03/26 09:46:25;;;;;;;5.60;1.63;;;;;;;19.31;44.87;100063.50;5053669;28;20048;-69
2023/03/26 09:49:16;;;;;;;4.45;1.58;;;;;;;19.32;44.61;100053.75;5053836;28;20029;-69
2023/03/26 09:52:02;;;;;;;6.57;1.70;;;;;;;19.37;44.74;100056.78;5053570;28;20120;-68
2023/03/26 09:55:01;;;;;;;4.63;1.50;;;;;;;19.39;44.84;100060.09;5051818;28;20504;-68
2023/03/26 09:57:45;;;;;;;4.78;1.27;;;;;;;19.39;44.88;100063.56;5049227;28;20457;-67
2023/03/26 10:00:27;;;;;;;4.93;1.50;;;;;;;19.39;44.92;100068.84;5053031;28;20921;-68
2023/03/26 10:03:16;;;;;;;6.75;1.63;;;;;;;19.38;44.84;100069.00;5043841;28;20041;-69
2023/03/26 10:06:03;;;;;;;5.47;1.50;;;;;;;19.38;44.93;100069.00;5052704;28;20400;-68
2023/03/26 10:08:53;;;;;;;5.15;1.48;;;;;;;19.39;45.03;100073.28;5052819;28;20035;-67
2023/03/26 10:11:55;;;;;;;6.68;1.60;;;;;;;19.38;45.13;100074.28;5052635;28;20024;-69
2023/03/26 10:14:33;;;;;;;5.10;1.40;;;;;;;19.39;45.05;100079.44;5052793;28;20369;-69
2023/03/26 10:17:18;;;;;;;5.18;1.40;;;;;;;19.35;45.18;100075.41;5052445;28;20029;-66
2023/03/26 10:20:08;;;;;;;4.30;1.30;;;;;;;19.36;45.14;100078.91;5051769;28;20049;-71
2023/03/26 10:23:00;;;;;;;4.28;1.30;;;;;;;19.36;44.90;100071.81;5052464;28;20036;-69
2023/03/26 10:25:35;;;;;;;6.80;1.30;;;;;;;19.37;44.99;100077.91;5052387;28;20036;-67
2023/03/26 10:28:20;;;;;;;5.07;1.20;;;;;;;19.39;45.05;100076.78;5053162;28;20029;-67
2023/03/26 10:31:02;;;;;;;5.85;1.20;;;;;;;19.46;44.67;100076.19;5050518;28;20044;-74
2023/03/26 10:33:53;;;;;;;4.10;1.38;;;;;;;19.48;44.54;100077.66;5052174;28;20040;-73
2023/03/26 10:36:28;;;;;;;3.92;1.35;;;;;;;19.47;44.65;100089.25;5049142;28;20112;-73
2023/03/26 10:39:20;;;;;;;4.47;1.35;;;;;;;19.47;44.61;100083.09;5049589;28;20032;-71
2023/03/26 10:42:22;;;;;;;5.47;1.20;;;;;;;19.44;44.59;100080.78;5050708;28;20041;-74
2023/03/26 10:45:32;;;;;;;3.58;1.20;;;;;;;19.42;44.75;100090.66;5059537;28;21327;-74
2023/03/26 10:48:34;;;;;;;3.55;1.27;;;;;;;19.37;44.85;100085.84;5044150;28;20063;-74
2023/03/26 10:51:37;;;;;;;3.65;1.13;;;;;;;19.36;44.83;100090.28;5059230;28;20041;-68
2023/03/26 10:54:33;;;;;;;6.35;1.90;;;;;;;19.34;45.04;100088.78;5051761;28;20044;-69
2023/03/26 10:57:02;;;;;;;7.38;1.80;;;;;;;19.28;45.07;100087.59;5051818;28;20033;-69
2023/03/26 10:59:27;;;;;;;6.35;1.75;;;;;;;19.28;45.06;100092.88;5051636;28;20032;-68
2023/03/26 11:02:22;;;;;;;7.50;1.50;;;;;;;19.24;45.26;100091.50;5051007;28;20036;-68
2023/03/26 11:04:59;;;;;;;5.05;1.90;;;;;;;19.23;45.14;100089.81;5051237;28;20062;-67
2023/03/26 11:07:46;;;;;;;5.03;1.20;;;;;;;19.25;45.09;100097.59;5052203;28;20028;-70
2023/03/26 11:10:20;;;;;;;5.60;1.45;;;;;;;19.24;45.14;100095.94;5067364;28;20074;-66
2023/03/26 11:12:54;;;;;;;4.85;1.15;;;;;;;19.23;45.33;100104.84;5051665;28;20128;-70
2023/03/26 11:16:01;;;;;;;6.18;1.48;;;;;;;19.19;45.17;100105.16;5051821;28;20500;-69
2023/03/26 11:18:44;;;;;;;4.97;1.52;;;;;;;19.21;45.01;100105.00;5050458;28;20106;-68
2023/03/26 11:21:16;;;;;;;4.28;1.75;;;;;;;19.21;45.18;100105.00;5052434;28;20128;-67
2023/03/26 11:24:04;;;;;;;6.78;1.30;;;;;;;19.22;44.97;100104.03;5051106;28;20068;-69
2023/03/26 11:27:06;;;;;;;3.33;1.20;;;;;;;19.25;44.86;100108.16;5051090;28;20100;-69
2023/03/26 11:29:34;;;;;;;5.18;1.00;;;;;;;19.25;44.91;100109.00;5051538;28;20162;-68
2023/03/26 11:32:09;;;;;;;5.22;1.35;;;;;;;19.24;45.07;100114.44;5051754;28;20044;-67
2023/03/26 11:34:40;;;;;;;4.05;1.20;;;;;;;19.23;44.95;100110.13;5052047;28;20036;-65
2023/03/26 11:37:15;;;;;;;3.85;1.40;;;;;;;19.24;44.98;100112.63;5051720;28;20024;-69
2023/03/26 11:39:50;;;;;;;4.30;1.17;;;;;;;19.24;44.94;100111.81;5051237;28;20028;-65
2023/03/26 11:42:18;;;;;;;3.85;1.00;;;;;;;19.25;44.83;100111.66;5050496;28;20028;-67
2023/03/26 11:44:58;;;;;;;3.72;1.30;;;;;;;19.22;44.93;100114.59;5051341;28;20152;-68
2023/03/26 11:47:30;;;;;;;4.70;1.20;;;;;;;19.21;44.89;100116.38;5051413;28;20043;-67
2023/03/26 11:49:57;;;;;;;4.70;1.30;;;;;;;19.24;44.87;100119.72;5050822;28;20028;-67
2023/03/26 11:52:25;;;;;;;5.20;1.10;;;;;;;19.23;44.80;100116.25;5051000;28;20055;-69